sensor_id;sensor_type;location;lat;lon;timestamp;pressure;altitude;pressure_sealevel;temperature;humidity
8641;BME280;4358;42.100;25.222;2024-03-08T00:01:33;100263.31;;;6.33;100.00
8641;BME280;4358;42.100;25.222;2024-03-08T00:04:00;100256.16;;;6.35;100.00
8641;BME280;4358;42.100;25.222;2024-03-08T00:06:28;100255.03;;;6.41;100.00
8641;BME280;4358;42.100;25.222;2024-03-08T00:08:55;100247.94;;;6.43;100.00
8641;BME280;4358;42.100;25.222;2024-03-08T00:11:22;100257.63;;;6.42;100.00
8641;BME280;4358;42.100;25.222;2024-03-08T00:13:51;100252.09;;;6.48;100.00
8641;BME280;4358;42.100;25.222;2024-03-08T00:16:18;100254.56;;;6.51;100.00
8641;BME280;4358;42.100;25.222;2024-03-08T00:18:45;100249.94;;;6.56;100.00
8641;BME280;4358;42.100;25.222;2024-03-08T00:21:13;100248.78;;;6.43;100.00
8641;BME280;4358;42.100;25.222;2024-03-08T00:23:42;100251.50;;;6.42;100.00
8641;BME280;4358;42.100;25.222;2024-03-08T00:26:09;100245.78;;;6.51;100.00
8641;BME280;4358;42.100;25.222;2024-03-08T00:28:35;100255.47;;;6.50;100.00
8641;BME280;4358;42.100;25.222;2024-03-08T00:31:03;100253.38;;;6.58;100.00
8641;BME280;4358;42.100;25.222;2024-03-08T00:33:30;100263.78;;;6.61;100.00
8641;BME280;4358;42.100;25.222;2024-03-08T00:35:57;100253.66;;;6.52;100.00
8641;BME280;4358;42.100;25.222;2024-03-08T00:38:24;100258.00;;;6.53;100.00
8641;BME280;4358;42.100;25.222;2024-03-08T00:40:52;100260.38;;;6.59;100.00
8641;BME280;4358;42.100;25.222;2024-03-08T00:43:18;100253.38;;;6.58;100.00
8641;BME280;4358;42.100;25.222;2024-03-08T00:45:45;100255.09;;;6.59;100.00
8641;BME280;4358;42.100;25.222;2024-03-08T00:48:12;100256.00;;;6.58;100.00
8641;BME280;4358;42.100;25.222;2024-03-08T00:50:39;100251.78;;;6.54;100.00
8641;BME280;4358;42.100;25.222;2024-03-08T00:53:06;100249.50;;;6.47;100.00
8641;BME280;4358;42.100;25.222;2024-03-08T00:55:33;100253.38;;;6.58;100.00
8641;BME280;4358;42.100;25.222;2024-03-08T00:58:02;100250.81;;;6.57;100.00
8641;BME280;4358;42.100;25.222;2024-03-08T01:00:29;100249.09;;;6.56;100.00
8641;BME280;4358;42.100;25.222;2024-03-08T01:02:56;100250.53;;;6.63;100.00
8641;BME280;4358;42.100;25.222;2024-03-08T01:05:24;100259.03;;;6.49;100.00
8641;BME280;4358;42.100;25.222;2024-03-08T01:07:51;100260.97;;;6.46;100.00
8641;BME280;4358;42.100;25.222;2024-03-08T01:10:17;100259.91;;;6.50;100.00
8641;BME280;4358;42.100;25.222;2024-03-08T01:12:44;100258.00;;;6.53;100.00
8641;BME280;4358;42.100;25.222;2024-03-08T01:15:12;100256.22;;;6.54;100.00
8641;BME280;4358;42.100;25.222;2024-03-08T01:17:39;100256.06;;;6.57;100.00
8641;BME280;4358;42.100;25.222;2024-03-08T01:20:07;100261.13;;;6.61;100.00
8641;BME280;4358;42.100;25.222;2024-03-08T01:22:36;100259.50;;;6.59;100.00
8641;BME280;4358;42.100;25.222;2024-03-08T01:25:03;100259.03;;;6.49;100.00
8641;BME280;4358;42.100;25.222;2024-03-08T01:27:31;100250.63;;;6.41;100.00
8641;BME280;4358;42.100;25.222;2024-03-08T01:29:58;100249.06;;;6.37;100.00
8641;BME280;4358;42.100;25.222;2024-03-08T01:32:26;100251.13;;;6.49;100.00
8641;BME280;4358;42.100;25.222;2024-03-08T01:34:53;100251.59;;;6.38;100.00
8641;BME280;4358;42.100;25.222;2024-03-08T01:37:20;100249.91;;;6.37;100.00
8641;BME280;4358;42.100;25.222;2024-03-08T01:39:46;100259.50;;;6.38;100.00
8641;BME280;4358;42.100;25.222;2024-03-08T01:42:13;100254.34;;;6.37;100.00
8641;BME280;4358;42.100;25.222;2024-03-08T01:44:42;100256.97;;;6.37;100.00
8641;BME280;4358;42.100;25.222;2024-03-08T01:47:10;100263.75;;;6.43;100.00
8641;BME280;4358;42.100;25.222;2024-03-08T01:49:39;100261.19;;;6.41;100.00
8641;BME280;4358;42.100;25.222;2024-03-08T01:52:07;100266.59;;;6.38;100.00
8641;BME280;4358;42.100;25.222;2024-03-08T01:54:34;100258.03;;;6.33;100.00
8641;BME280;4358;42.100;25.222;2024-03-08T01:57:02;100264.44;;;6.27;100.00
8641;BME280;4358;42.100;25.222;2024-03-08T01:59:29;100258.41;;;6.24;100.00
8641;BME280;4358;42.100;25.222;2024-03-08T02:02:00;100258.81;;;6.15;100.00
8641;BME280;4358;42.100;25.222;2024-03-08T02:04:27;100263.84;;;6.21;100.00
8641;BME280;4358;42.100;25.222;2024-03-08T02:06:57;100256.69;;;6.23;100.00
8641;BME280;4358;42.100;25.222;2024-03-08T02:09:24;100265.81;;;6.16;100.00
8641;BME280;4358;42.100;25.222;2024-03-08T02:11:51;100257.09;;;6.14;100.00
8641;BME280;4358;42.100;25.222;2024-03-08T02:14:20;100258.81;;;6.15;100.00
8641;BME280;4358;42.100;25.222;2024-03-08T02:16:47;100259.22;;;6.06;100.00
8641;BME280;4358;42.100;25.222;2024-03-08T02:19:13;100252.38;;;6.02;100.00
8641;BME280;4358;42.100;25.222;2024-03-08T02:21:42;100260.13;;;6.05;100.00
8641;BME280;4358;42.100;25.222;2024-03-08T02:24:09;100262.78;;;6.05;100.00
8641;BME280;4358;42.100;25.222;2024-03-08T02:26:36;100254.22;;;6.00;100.00
8641;BME280;4358;42.100;25.222;2024-03-08T02:29:02;100256.91;;;5.98;100.00
8641;BME280;4358;42.100;25.222;2024-03-08T02:31:30;100256.69;;;6.03;100.00
8641;BME280;4358;42.100;25.222;2024-03-08T02:33:58;100260.28;;;6.02;100.00
8641;BME280;4358;42.100;25.222;2024-03-08T02:36:25;100263.94;;;5.97;100.00
8641;BME280;4358;42.100;25.222;2024-03-08T02:38:53;100263.94;;;5.97;100.00
8641;BME280;4358;42.100;25.222;2024-03-08T02:41:21;100266.78;;;5.93;100.00
8641;BME280;4358;42.100;25.222;2024-03-08T02:43:48;100265.00;;;5.93;100.00
8641;BME280;4358;42.100;25.222;2024-03-08T02:46:16;100267.53;;;5.97;100.00
8641;BME280;4358;42.100;25.222;2024-03-08T02:48:42;100259.69;;;5.95;100.00
8641;BME280;4358;42.100;25.222;2024-03-08T02:51:09;100260.44;;;5.97;100.00
8641;BME280;4358;42.100;25.222;2024-03-08T02:53:37;100267.44;;;5.98;100.00
8641;BME280;4358;42.100;25.222;2024-03-08T02:56:05;100266.84;;;5.91;100.00
8641;BME280;4358;42.100;25.222;2024-03-08T02:58:34;100259.13;;;5.87;100.00
8641;BME280;4358;42.100;25.222;2024-03-08T03:01:01;100260.09;;;5.84;100.00
8641;BME280;4358;42.100;25.222;2024-03-08T03:03:27;100260.00;;;5.87;100.00
8641;BME280;4358;42.100;25.222;2024-03-08T03:05:54;100267.78;;;5.90;100.00
8641;BME280;4358;42.100;25.222;2024-03-08T03:08:21;100266.97;;;5.88;100.00
8641;BME280;4358;42.100;25.222;2024-03-08T03:10:49;100265.06;;;5.92;100.00
8641;BME280;4358;42.100;25.222;2024-03-08T03:13:17;100267.84;;;5.89;100.00
8641;BME280;4358;42.100;25.222;2024-03-08T03:15:46;100272.00;;;5.94;100.00
8641;BME280;4358;42.100;25.222;2024-03-08T03:18:12;100267.09;;;5.85;100.00
8641;BME280;4358;42.100;25.222;2024-03-08T03:20:39;100270.88;;;5.78;100.00
8641;BME280;4358;42.100;25.222;2024-03-08T03:23:08;100272.84;;;5.73;100.00
8641;BME280;4358;42.100;25.222;2024-03-08T03:25:35;100274.63;;;5.73;100.00
8641;BME280;4358;42.100;25.222;2024-03-08T03:28:04;100271.13;;;5.72;100.00
8641;BME280;4358;42.100;25.222;2024-03-08T03:30:34;100270.53;;;5.66;100.00
8641;BME280;4358;42.100;25.222;2024-03-08T03:33:02;100278.59;;;5.61;100.00
8641;BME280;4358;42.100;25.222;2024-03-08T03:35:32;100280.22;;;5.65;100.00
8641;BME280;4358;42.100;25.222;2024-03-08T03:37:59;100276.88;;;5.60;100.00
8641;BME280;4358;42.100;25.222;2024-03-08T03:40:32;100287.31;;;5.63;100.00
8641;BME280;4358;42.100;25.222;2024-03-08T03:42:59;100282.53;;;5.51;100.00
8641;BME280;4358;42.100;25.222;2024-03-08T03:45:26;100291.09;;;5.56;100.00
8641;BME280;4358;42.100;25.222;2024-03-08T03:47:55;100290.00;;;5.62;100.00
8641;BME280;4358;42.100;25.222;2024-03-08T03:50:22;100289.28;;;5.58;100.00
8641;BME280;4358;42.100;25.222;2024-03-08T03:52:49;100288.47;;;5.56;100.00
8641;BME280;4358;42.100;25.222;2024-03-08T03:55:16;100290.88;;;5.62;100.00
8641;BME280;4358;42.100;25.222;2024-03-08T03:57:43;100295.41;;;5.59;100.00
8641;BME280;4358;42.100;25.222;2024-03-08T04:00:11;100293.69;;;5.58;100.00
8641;BME280;4358;42.100;25.222;2024-03-08T04:02:39;100295.50;;;5.55;100.00
8641;BME280;4358;42.100;25.222;2024-03-08T04:05:08;100291.97;;;5.57;100.00
8641;BME280;4358;42.100;25.222;2024-03-08T04:07:36;100299.09;;;5.54;100.00
8641;BME280;4358;42.100;25.222;2024-03-08T04:10:04;100299.09;;;5.54;100.00
8641;BME280;4358;42.100;25.222;2024-03-08T04:12:32;100296.38;;;5.56;100.00
8641;BME280;4358;42.100;25.222;2024-03-08T04:14:58;100300.66;;;5.59;100.00
8641;BME280;4358;42.100;25.222;2024-03-08T04:17:25;100297.22;;;5.57;100.00
8641;BME280;4358;42.100;25.222;2024-03-08T04:19:52;100298.22;;;5.54;100.00
8641;BME280;4358;42.100;25.222;2024-03-08T04:22:21;100304.50;;;5.50;100.00
8641;BME280;4358;42.100;25.222;2024-03-08T04:24:48;100300.06;;;5.52;100.00
8641;BME280;4358;42.100;25.222;2024-03-08T04:27:14;100301.78;;;5.53;100.00
8641;BME280;4358;42.100;25.222;2024-03-08T04:29:41;100302.72;;;5.50;100.00
8641;BME280;4358;42.100;25.222;2024-03-08T04:32:08;100306.19;;;5.52;100.00
8641;BME280;4358;42.100;25.222;2024-03-08T04:34:35;100302.38;;;5.60;100.00
8641;BME280;4358;42.100;25.222;2024-03-08T04:37:02;100302.00;;;5.47;100.00
8641;BME280;4358;42.100;25.222;2024-03-08T04:39:31;100304.50;;;5.50;100.00
8641;BME280;4358;42.100;25.222;2024-03-08T04:42:00;100307.13;;;5.50;100.00
8641;BME280;4358;42.100;25.222;2024-03-08T04:44:28;100307.28;;;5.47;100.00
8641;BME280;4358;42.100;25.222;2024-03-08T04:46:55;100306.56;;;5.43;100.00
8641;BME280;4358;42.100;25.222;2024-03-08T04:49:22;100317.13;;;5.42;100.00
8641;BME280;4358;42.100;25.222;2024-03-08T04:51:49;100305.69;;;5.43;100.00
8641;BME280;4358;42.100;25.222;2024-03-08T04:54:16;100309.22;;;5.42;100.00
8641;BME280;4358;42.100;25.222;2024-03-08T04:56:44;100308.09;;;5.49;100.00
8641;BME280;4358;42.100;25.222;2024-03-08T04:59:11;100315.13;;;5.48;100.00
8641;BME280;4358;42.100;25.222;2024-03-08T05:01:39;100314.13;;;5.51;100.00
8641;BME280;4358;42.100;25.222;2024-03-08T05:04:05;100322.16;;;5.48;100.00
8641;BME280;4358;42.100;25.222;2024-03-08T05:06:32;100316.75;;;5.51;100.00
8641;BME280;4358;42.100;25.222;2024-03-08T05:08:59;100325.34;;;5.56;100.00
8641;BME280;4358;42.100;25.222;2024-03-08T05:11:26;100327.78;;;5.61;100.00
8641;BME280;4358;42.100;25.222;2024-03-08T05:13:54;100331.22;;;5.63;100.00
8641;BME280;4358;42.100;25.222;2024-03-08T05:16:21;100336.06;;;5.73;100.00
8641;BME280;4358;42.100;25.222;2024-03-08T05:18:49;100337.78;;;5.74;100.00
8641;BME280;4358;42.100;25.222;2024-03-08T05:21:16;100340.16;;;5.80;100.00
8641;BME280;4358;42.100;25.222;2024-03-08T05:23:45;100335.38;;;5.68;100.00
8641;BME280;4358;42.100;25.222;2024-03-08T05:26:13;100343.97;;;5.73;100.00
8641;BME280;4358;42.100;25.222;2024-03-08T05:28:40;100348.31;;;5.74;100.00
8641;BME280;4358;42.100;25.222;2024-03-08T05:31:08;100353.34;;;5.80;100.00
8641;BME280;4358;42.100;25.222;2024-03-08T05:33:35;100358.47;;;5.83;100.00
8641;BME280;4358;42.100;25.222;2024-03-08T05:36:02;100363.53;;;5.89;100.00
8641;BME280;4358;42.100;25.222;2024-03-08T05:38:30;100351.75;;;5.98;100.00
8641;BME280;4358;42.100;25.222;2024-03-08T05:40:57;100355.38;;;5.95;100.00
8641;BME280;4358;42.100;25.222;2024-03-08T05:43:24;100362.09;;;6.03;100.00
8641;BME280;4358;42.100;25.222;2024-03-08T05:45:50;100367.31;;;6.04;100.00
8641;BME280;4358;42.100;25.222;2024-03-08T05:48:18;100364.38;;;6.12;100.00
8641;BME280;4358;42.100;25.222;2024-03-08T05:50:45;100362.25;;;6.20;100.00
8641;BME280;4358;42.100;25.222;2024-03-08T05:53:12;100372.41;;;6.29;100.00
8641;BME280;4358;42.100;25.222;2024-03-08T05:55:40;100374.59;;;6.39;100.00
8641;BME280;4358;42.100;25.222;2024-03-08T05:58:06;100377.97;;;6.43;100.00
8641;BME280;4358;42.100;25.222;2024-03-08T06:00:34;100384.63;;;6.52;100.00
8641;BME280;4358;42.100;25.222;2024-03-08T06:03:02;100380.88;;;6.57;100.00
8641;BME280;4358;42.100;25.222;2024-03-08T06:05:30;100390.75;;;6.72;100.00
8641;BME280;4358;42.100;25.222;2024-03-08T06:07:57;100401.56;;;6.87;100.00
8641;BME280;4358;42.100;25.222;2024-03-08T06:10:24;100401.88;;;6.99;100.00
8641;BME280;4358;42.100;25.222;2024-03-08T06:12:51;100399.97;;;7.03;100.00
8641;BME280;4358;42.100;25.222;2024-03-08T06:15:18;100401.22;;;7.14;100.00
8641;BME280;4358;42.100;25.222;2024-03-08T06:17:46;100400.78;;;7.23;100.00
8641;BME280;4358;42.100;25.222;2024-03-08T06:20:13;100418.00;;;7.32;100.00
8641;BME280;4358;42.100;25.222;2024-03-08T06:22:42;100410.63;;;7.39;100.00
8641;BME280;4358;42.100;25.222;2024-03-08T06:25:10;100418.22;;;7.46;100.00
8641;BME280;4358;42.100;25.222;2024-03-08T06:27:39;100422.22;;;7.55;100.00
8641;BME280;4358;42.100;25.222;2024-03-08T06:30:08;100410.25;;;7.48;100.00
8641;BME280;4358;42.100;25.222;2024-03-08T06:32:36;100426.63;;;7.54;100.00
8641;BME280;4358;42.100;25.222;2024-03-08T06:35:03;100426.34;;;7.60;100.00
8641;BME280;4358;42.100;25.222;2024-03-08T06:37:31;100429.75;;;7.64;100.00
8641;BME280;4358;42.100;25.222;2024-03-08T06:40:00;100440.78;;;7.72;100.00
8641;BME280;4358;42.100;25.222;2024-03-08T06:42:27;100437.28;;;7.72;100.00
8641;BME280;4358;42.100;25.222;2024-03-08T06:44:54;100448.66;;;7.74;100.00
8641;BME280;4358;42.100;25.222;2024-03-08T06:47:28;100451.50;;;7.69;100.00
8641;BME280;4358;42.100;25.222;2024-03-08T06:49:55;100446.34;;;7.66;100.00
8641;BME280;4358;42.100;25.222;2024-03-08T06:52:22;100450.50;;;7.72;100.00
8641;BME280;4358;42.100;25.222;2024-03-08T06:54:49;100456.31;;;7.80;100.00
8641;BME280;4358;42.100;25.222;2024-03-08T06:57:19;100453.50;;;7.83;100.00
8641;BME280;4358;42.100;25.222;2024-03-08T06:59:47;100464.94;;;7.83;100.00
8641;BME280;4358;42.100;25.222;2024-03-08T07:02:14;100461.50;;;7.81;100.00
8641;BME280;4358;42.100;25.222;2024-03-08T07:04:41;100456.16;;;7.83;100.00
8641;BME280;4358;42.100;25.222;2024-03-08T07:07:07;100466.50;;;7.87;100.00
8641;BME280;4358;42.100;25.222;2024-03-08T07:09:35;100461.38;;;7.84;100.00
8641;BME280;4358;42.100;25.222;2024-03-08T07:12:02;100458.28;;;7.75;100.00
8641;BME280;4358;42.100;25.222;2024-03-08T07:14:30;100466.06;;;7.78;100.00
8641;BME280;4358;42.100;25.222;2024-03-08T07:16:57;100465.06;;;7.61;100.00
8641;BME280;4358;42.100;25.222;2024-03-08T07:19:24;100466.91;;;7.59;100.00
8641;BME280;4358;42.100;25.222;2024-03-08T07:21:51;100461.13;;;7.51;100.00
8641;BME280;4358;42.100;25.222;2024-03-08T07:24:17;100470.69;;;7.54;100.00
8641;BME280;4358;42.100;25.222;2024-03-08T07:27:04;100455.13;;;7.48;100.00
8641;BME280;4358;42.100;25.222;2024-03-08T07:29:33;100459.94;;;7.58;100.00
8641;BME280;4358;42.100;25.222;2024-03-08T07:32:00;100463.41;;;7.59;100.00
8641;BME280;4358;42.100;25.222;2024-03-08T07:34:38;100464.34;;;7.58;100.00
8641;BME280;4358;42.100;25.222;2024-03-08T07:37:06;100457.19;;;7.60;100.00
8641;BME280;4358;42.100;25.222;2024-03-08T07:39:37;100465.66;;;7.68;100.00
8641;BME280;4358;42.100;25.222;2024-03-08T07:42:04;100461.13;;;7.70;100.00
8641;BME280;4358;42.100;25.222;2024-03-08T07:44:33;100469.63;;;7.77;100.00
8641;BME280;4358;42.100;25.222;2024-03-08T07:46:59;100468.44;;;7.84;100.00
8641;BME280;4358;42.100;25.222;2024-03-08T07:49:26;100468.50;;;7.82;100.00
8641;BME280;4358;42.100;25.222;2024-03-08T07:51:53;100463.84;;;7.87;100.00
8641;BME280;4358;42.100;25.222;2024-03-08T07:54:20;100476.19;;;7.87;100.00
8641;BME280;4358;42.100;25.222;2024-03-08T07:56:46;100477.78;;;7.91;100.00
8641;BME280;4358;42.100;25.222;2024-03-08T07:59:13;100480.13;;;7.97;100.00
8641;BME280;4358;42.100;25.222;2024-03-08T08:01:41;100474.84;;;7.97;100.00
8641;BME280;4358;42.100;25.222;2024-03-08T08:04:09;100493.91;;;8.03;100.00
8641;BME280;4358;42.100;25.222;2024-03-08T08:06:38;100486.50;;;7.93;100.00
8641;BME280;4358;42.100;25.222;2024-03-08T08:09:06;100494.28;;;7.96;100.00
8641;BME280;4358;42.100;25.222;2024-03-08T08:11:39;100493.22;;;8.00;100.00
8641;BME280;4358;42.100;25.222;2024-03-08T08:14:06;100495.78;;;8.01;100.00
8641;BME280;4358;42.100;25.222;2024-03-08T08:16:35;100498.06;;;8.09;100.00
8641;BME280;4358;42.100;25.222;2024-03-08T08:19:03;100500.66;;;8.11;100.00
8641;BME280;4358;42.100;25.222;2024-03-08T08:21:33;100494.34;;;8.13;100.00
8641;BME280;4358;42.100;25.222;2024-03-08T08:24:00;100502.22;;;8.15;100.00
8641;BME280;4358;42.100;25.222;2024-03-08T08:26:28;100498.78;;;8.13;100.00
8641;BME280;4358;42.100;25.222;2024-03-08T08:28:55;100503.06;;;8.15;100.00
8641;BME280;4358;42.100;25.222;2024-03-08T08:31:22;100493.22;;;8.00;100.00
8641;BME280;4358;42.100;25.222;2024-03-08T08:33:49;100508.63;;;8.09;100.00
8641;BME280;4358;42.100;25.222;2024-03-08T08:36:19;100510.25;;;8.12;100.00
8641;BME280;4358;42.100;25.222;2024-03-08T08:38:46;100506.91;;;8.08;100.00
8641;BME280;4358;42.100;25.222;2024-03-08T08:41:13;100513.94;;;8.09;100.00
8641;BME280;4358;42.100;25.222;2024-03-08T08:43:39;100507.06;;;8.05;100.00
8641;BME280;4358;42.100;25.222;2024-03-08T08:46:09;100511.41;;;8.06;100.00
8641;BME280;4358;42.100;25.222;2024-03-08T08:48:38;100506.34;;;8.01;100.00
8641;BME280;4358;42.100;25.222;2024-03-08T08:51:06;100512.19;;;8.08;100.00
8641;BME280;4358;42.100;25.222;2024-03-08T08:53:39;100505.06;;;8.10;100.00
8641;BME280;4358;42.100;25.222;2024-03-08T08:56:08;100514.78;;;8.09;100.00
8641;BME280;4358;42.100;25.222;2024-03-08T08:58:38;100518.28;;;8.10;100.00
8641;BME280;4358;42.100;25.222;2024-03-08T09:01:05;100520.66;;;8.16;100.00
8641;BME280;4358;42.100;25.222;2024-03-08T09:03:33;100521.28;;;8.21;100.00
8641;BME280;4358;42.100;25.222;2024-03-08T09:06:00;100510.84;;;8.18;100.00
8641;BME280;4358;42.100;25.222;2024-03-08T09:08:28;100513.47;;;8.18;100.00
8641;BME280;4358;42.100;25.222;2024-03-08T09:10:56;100523.63;;;8.27;100.00
8641;BME280;4358;42.100;25.222;2024-03-08T09:13:25;100521.94;;;8.26;100.00
8641;BME280;4358;42.100;25.222;2024-03-08T09:15:51;100523.22;;;8.36;100.00
8641;BME280;4358;42.100;25.222;2024-03-08T09:18:19;100518.47;;;8.43;100.00
8641;BME280;4358;42.100;25.222;2024-03-08T09:20:46;100513.91;;;8.46;100.00
8641;BME280;4358;42.100;25.222;2024-03-08T09:23:13;100520.78;;;8.50;100.00
8641;BME280;4358;42.100;25.222;2024-03-08T09:25:42;100517.03;;;8.55;100.00
8641;BME280;4358;42.100;25.222;2024-03-08T09:28:10;100521.88;;;8.64;100.00
8641;BME280;4358;42.100;25.222;2024-03-08T09:30:38;100521.44;;;8.73;100.00
8641;BME280;4358;42.100;25.222;2024-03-08T09:33:05;100521.13;;;8.79;100.00
8641;BME280;4358;42.100;25.222;2024-03-08T09:35:32;100522.47;;;8.87;100.00
8641;BME280;4358;42.100;25.222;2024-03-08T09:37:59;100525.50;;;8.97;100.00
8641;BME280;4358;42.100;25.222;2024-03-08T09:40:25;100527.22;;;9.15;100.00
8641;BME280;4358;42.100;25.222;2024-03-08T09:42:52;100530.78;;;9.31;100.00
8641;BME280;4358;42.100;25.222;2024-03-08T09:45:22;100530.31;;;9.41;100.00
8641;BME280;4358;42.100;25.222;2024-03-08T09:47:50;100539.03;;;9.43;100.00
8641;BME280;4358;42.100;25.222;2024-03-08T09:50:18;100529.19;;;9.62;100.00
8641;BME280;4358;42.100;25.222;2024-03-08T09:52:47;100532.88;;;9.75;100.00
8641;BME280;4358;42.100;25.222;2024-03-08T09:55:16;100524.44;;;9.84;100.00
8641;BME280;4358;42.100;25.222;2024-03-08T09:57:47;100524.44;;;9.84;100.00
8641;BME280;4358;42.100;25.222;2024-03-08T10:00:41;100529.13;;;9.79;100.00
8641;BME280;4358;42.100;25.222;2024-03-08T10:03:08;100522.22;;;9.92;100.00
8641;BME280;4358;42.100;25.222;2024-03-08T10:05:36;100526.28;;;9.99;100.00
8641;BME280;4358;42.100;25.222;2024-03-08T10:08:04;100521.56;;;10.04;100.00
8641;BME280;4358;42.100;25.222;2024-03-08T10:10:33;100526.06;;;10.19;100.00
8641;BME280;4358;42.100;25.222;2024-03-08T10:13:01;100526.06;;;10.35;100.00
8641;BME280;4358;42.100;25.222;2024-03-08T10:15:28;100528.72;;;10.35;100.00
8641;BME280;4358;42.100;25.222;2024-03-08T10:17:56;100519.03;;;10.50;100.00
8641;BME280;4358;42.100;25.222;2024-03-08T10:20:23;100519.88;;;10.50;100.00
8641;BME280;4358;42.100;25.222;2024-03-08T10:22:52;100516.44;;;10.64;100.00
8641;BME280;4358;42.100;25.222;2024-03-08T10:25:19;100523.84;;;10.73;100.00
8641;BME280;4358;42.100;25.222;2024-03-08T10:27:46;100526.16;;;10.79;100.00
8641;BME280;4358;42.100;25.222;2024-03-08T10:30:15;100518.03;;;10.82;100.00
8641;BME280;4358;42.100;25.222;2024-03-08T10:32:45;100513.81;;;10.78;100.00
8641;BME280;4358;42.100;25.222;2024-03-08T10:35:14;100515.66;;;10.78;100.00
8641;BME280;4358;42.100;25.222;2024-03-08T10:37:45;100510.56;;;10.73;100.00
8641;BME280;4358;42.100;25.222;2024-03-08T10:40:16;100503.16;;;10.64;100.00
8641;BME280;4358;42.100;25.222;2024-03-08T10:42:51;100498.63;;;10.66;100.00
8641;BME280;4358;42.100;25.222;2024-03-08T10:45:26;100505.66;;;10.67;100.00
8641;BME280;4358;42.100;25.222;2024-03-08T10:48:09;100502.88;;;10.69;100.00
8641;BME280;4358;42.100;25.222;2024-03-08T10:50:43;100506.75;;;10.63;100.00
8641;BME280;4358;42.100;25.222;2024-03-08T10:53:11;100494.53;;;10.60;100.00
8641;BME280;4358;42.100;25.222;2024-03-08T10:55:40;100490.06;;;10.61;100.00
8641;BME280;4358;42.100;25.222;2024-03-08T10:58:07;100494.69;;;10.57;100.00
8641;BME280;4358;42.100;25.222;2024-03-08T11:00:34;100488.16;;;10.63;100.00
8641;BME280;4358;42.100;25.222;2024-03-08T11:03:02;100493.66;;;10.60;100.00
8641;BME280;4358;42.100;25.222;2024-03-08T11:05:36;100487.75;;;10.55;100.00
8641;BME280;4358;42.100;25.222;2024-03-08T11:08:16;100485.69;;;10.60;100.00
8641;BME280;4358;42.100;25.222;2024-03-08T11:10:48;100487.41;;;10.61;100.00
8641;BME280;4358;42.100;25.222;2024-03-08T11:13:32;100481.66;;;10.69;100.00
8641;BME280;4358;42.100;25.222;2024-03-08T11:15:59;100478.56;;;10.76;100.00
8641;BME280;4358;42.100;25.222;2024-03-08T11:18:26;100477.34;;;10.82;100.00
8641;BME280;4358;42.100;25.222;2024-03-08T11:20:53;100478.00;;;10.85;100.00
8641;BME280;4358;42.100;25.222;2024-03-08T11:23:23;100475.38;;;10.99;100.00
8641;BME280;4358;42.100;25.222;2024-03-08T11:25:51;100481.84;;;11.10;100.00
8641;BME280;4358;42.100;25.222;2024-03-08T11:28:20;100474.56;;;10.99;100.00
8641;BME280;4358;42.100;25.222;2024-03-08T11:31:23;100473.41;;;10.73;100.00
8641;BME280;4358;42.100;25.222;2024-03-08T11:33:50;100472.16;;;10.94;100.00
8641;BME280;4358;42.100;25.222;2024-03-08T11:36:20;100475.38;;;10.99;100.00
8641;BME280;4358;42.100;25.222;2024-03-08T11:38:49;100466.72;;;10.82;100.00
8641;BME280;4358;42.100;25.222;2024-03-08T11:41:18;100471.13;;;10.67;100.00
8641;BME280;4358;42.100;25.222;2024-03-08T11:43:46;100481.16;;;10.62;100.00
8641;BME280;4358;42.100;25.222;2024-03-08T11:46:13;100480.03;;;10.66;100.00
8641;BME280;4358;42.100;25.222;2024-03-08T11:48:42;100491.59;;;10.65;100.00
8641;BME280;4358;42.100;25.222;2024-03-08T11:51:11;100479.63;;;10.58;100.00
8641;BME280;4358;42.100;25.222;2024-03-08T11:53:38;100477.38;;;10.66;100.00
8641;BME280;4358;42.100;25.222;2024-03-08T11:56:09;100475.97;;;10.75;100.00
8641;BME280;4358;42.100;25.222;2024-03-08T11:58:37;100471.88;;;10.69;100.00
8641;BME280;4358;42.100;25.222;2024-03-08T12:01:04;100471.88;;;10.69;100.00
8641;BME280;4358;42.100;25.222;2024-03-08T12:03:32;100478.41;;;10.63;100.00
8641;BME280;4358;42.100;25.222;2024-03-08T12:06:00;100475.09;;;10.60;100.00
8641;BME280;4358;42.100;25.222;2024-03-08T12:08:30;100480.97;;;10.65;100.00
8641;BME280;4358;42.100;25.222;2024-03-08T12:10:57;100471.44;;;10.77;100.00
8641;BME280;4358;42.100;25.222;2024-03-08T12:13:27;100468.69;;;10.78;100.00
8641;BME280;4358;42.100;25.222;2024-03-08T12:15:56;100459.44;;;10.85;100.00
8641;BME280;4358;42.100;25.222;2024-03-08T12:18:25;100477.16;;;10.85;100.00
8641;BME280;4358;42.100;25.222;2024-03-08T12:21:04;100477.47;;;10.94;100.00
8641;BME280;4358;42.100;25.222;2024-03-08T12:23:32;100425.81;;;10.70;100.00
8641;BME280;4358;42.100;25.222;2024-03-08T12:26:09;100478.09;;;11.14;100.00
8641;BME280;4358;42.100;25.222;2024-03-08T12:28:40;100476.28;;;11.14;100.00
8641;BME280;4358;42.100;25.222;2024-03-08T12:31:07;100466.81;;;11.38;100.00
8641;BME280;4358;42.100;25.222;2024-03-08T12:33:36;100456.38;;;11.64;100.00
8641;BME280;4358;42.100;25.222;2024-03-08T12:36:03;100466.16;;;11.63;100.00
8641;BME280;4358;42.100;25.222;2024-03-08T12:38:32;100459.13;;;11.62;100.00
8641;BME280;4358;42.100;25.222;2024-03-08T12:41:00;100461.81;;;11.76;100.00
8641;BME280;4358;42.100;25.222;2024-03-08T12:43:27;100453.09;;;12.15;100.00
8641;BME280;4358;42.100;25.222;2024-03-08T12:45:57;100454.03;;;12.41;100.00
8641;BME280;4358;42.100;25.222;2024-03-08T12:48:23;100451.94;;;12.46;100.00
8641;BME280;4358;42.100;25.222;2024-03-08T12:50:50;100447.03;;;12.13;100.00
8641;BME280;4358;42.100;25.222;2024-03-08T12:53:19;100444.81;;;12.20;100.00
8641;BME280;4358;42.100;25.222;2024-03-08T12:55:46;100447.56;;;11.49;100.00
8641;BME280;4358;42.100;25.222;2024-03-08T12:58:12;100435.69;;;11.55;100.00
8641;BME280;4358;42.100;25.222;2024-03-08T13:00:42;100437.84;;;11.62;100.00
8641;BME280;4358;42.100;25.222;2024-03-08T13:03:10;100443.38;;;11.59;100.00